Time;durP1;ratioP1;P1;durP2;ratioP2;P2;SDS_P1;SDS_P2;PMS_P1;PMS_P2;Temp;Humidity;BMP_temperature;BMP_pressure;BME280_temperature;BME280_humidity;BME280_pressure;Samples;Min_cycle;Max_cycle;Signal;HPM_P1;HPM_P2
2022/11/15 00:01:54;;;;;;;;;;;;;;;5.91;87.41602;100886.7;;;;-75
2022/11/15 00:06:25;;;;;;;25.4;10.6;;;;;;;;;;;;;-75
2022/11/15 00:06:51;;;;;;;;;;;;;;;5.92;87.27637;100893.9;;;;-74
2022/11/15 00:11:51;;;;;;;;;;;;;;;5.95;87.76172;100894.8;;;;-75
2022/11/15 00:16:54;;;;;;;;;;;;;;;5.98;87.81348;100888.9;;;;-75
2022/11/15 00:21:54;;;;;;;;;;;;;;;5.97;87.59277;100877.6;;;;-75
2022/11/15 00:26:51;;;;;;;;;;;;;;;5.99;87.42188;100879.1;;;;-75
2022/11/15 00:31:51;;;;;;;;;;;;;;;6.02;88.10449;100878.4;;;;-75
2022/11/15 00:36:25;;;;;;;30.9;12.2;;;;;;;;;;;;;-76
2022/11/15 00:36:54;;;;;;;;;;;;;;;6.04;88.20801;100875.3;;;;-77
2022/11/15 00:41:51;;;;;;;;;;;;;;;6.04;87.72754;100879.6;;;;-76
2022/11/15 00:46:52;;;;;;;;;;;;;;;6.06;88.37598;100867.1;;;;-80
2022/11/15 00:51:51;;;;;;;;;;;;;;;6.09;88.5127;100863.6;;;;-76
2022/11/15 00:56:51;;;;;;;;;;;;;;;6.11;88.15625;100851.9;;;;-76
2022/11/15 01:01:51;;;;;;;;;;;;;;;6.13;88.31055;100846.3;;;;-76
2022/11/15 01:06:25;;;;;;;32.8;13.5;;;;;;;;;;;;;-76
2022/11/15 01:06:51;;;;;;;;;;;;;;;6.15;88.27246;100846.3;;;;-76
2022/11/15 01:11:51;;;;;;;;;;;;;;;6.16;88.38574;100840.6;;;;-77
2022/11/15 01:16:52;;;;;;;;;;;;;;;6.19;87.98633;100845.1;;;;-78
2022/11/15 01:21:52;;;;;;;;;;;;;;;6.2;88.56738;100841.6;;;;-76
2022/11/15 01:26:51;;;;;;;;;;;;;;;6.24;88.37793;100859.8;;;;-77
2022/11/15 01:31:53;;;;;;;;;;;;;;;6.25;88.58789;100851.1;;;;-75
2022/11/15 01:36:25;;;;;;;32.1;12.4;;;;;;;;;;;;;-75
2022/11/15 01:36:51;;;;;;;;;;;;;;;6.27;88.56934;100839.1;;;;-75
2022/11/15 01:41:51;;;;;;;;;;;;;;;6.29;88.43359;100832;;;;-75
2022/11/15 01:46:52;;;;;;;;;;;;;;;6.32;89.12695;100833.3;;;;-76
2022/11/15 01:51:53;;;;;;;;;;;;;;;6.33;89.08496;100825.2;;;;-75
2022/11/15 01:56:55;;;;;;;;;;;;;;;6.35;89.26367;100820.8;;;;-76
2022/11/15 02:01:51;;;;;;;;;;;;;;;6.37;89.24805;100808.3;;;;-75
2022/11/15 02:06:25;;;;;;;32.2;12.5;;;;;;;;;;;;;-76
2022/11/15 02:06:54;;;;;;;;;;;;;;;6.4;89.42676;100800.3;;;;-77
2022/11/15 02:11:53;;;;;;;;;;;;;;;6.41;88.75293;100785.1;;;;-74
2022/11/15 02:16:56;;;;;;;;;;;;;;;6.44;89.45898;100784.1;;;;-75
2022/11/15 02:21:57;;;;;;;;;;;;;;;6.45;89.0332;100774.3;;;;-76
2022/11/15 02:27:09;;;;;;;;;;;;;;;6.48;88.83105;100779.5;;;;-75
2022/11/15 02:31:55;;;;;;;;;;;;;;;6.49;89.16309;100769.2;;;;-75
2022/11/15 02:36:31;;;;;;;31.6;12.1;;;;;;;;;;;;;-76
2022/11/15 02:36:55;;;;;;;;;;;;;;;6.52;88.98242;100752.9;;;;-75
2022/11/15 02:41:54;;;;;;;;;;;;;;;6.54;88.86621;100748.1;;;;-76
2022/11/15 02:51:54;;;;;;;;;;;;;;;6.58;89.26855;100735.1;;;;-75
2022/11/15 02:56:52;;;;;;;;;;;;;;;6.62;89.59375;100731.6;;;;-76
2022/11/15 03:01:59;;;;;;;;;;;;;;;6.63;89.24512;100730.3;;;;-76
2022/11/15 03:06:30;;;;;;;31.5;12;;;;;;;;;;;;;-76
2022/11/15 03:06:53;;;;;;;;;;;;;;;6.67;89.20898;100727.8;;;;-76
2022/11/15 03:11:56;;;;;;;;;;;;;;;6.68;88.87402;100723.3;;;;-75
2022/11/15 03:16:54;;;;;;;;;;;;;;;6.72;89.19824;100710.5;;;;-75
2022/11/15 03:21:52;;;;;;;;;;;;;;;6.75;89.30273;100713.8;;;;-76
2022/11/15 03:26:54;;;;;;;;;;;;;;;6.77;89.54688;100711.6;;;;-75
2022/11/15 03:31:54;;;;;;;;;;;;;;;6.82;90.08301;100708.5;;;;-75
2022/11/15 03:36:25;;;;;;;39.7;13.8;;;;;;;;;;;;;-75
2022/11/15 03:36:53;;;;;;;;;;;;;;;6.86;89.56738;100708;;;;-75
2022/11/15 03:41:52;;;;;;;;;;;;;;;6.92;90.62891;100709.2;;;;-76
2022/11/15 03:47:02;;;;;;;;;;;;;;;6.98;90.90332;100705.5;;;;-75
2022/11/15 03:51:51;;;;;;;;;;;;;;;7.05;90.95117;100695.1;;;;-75
2022/11/15 03:56:51;;;;;;;;;;;;;;;7.11;91.25977;100690.4;;;;-75
2022/11/15 04:01:51;;;;;;;;;;;;;;;7.17;91.20605;100685.9;;;;-75
2022/11/15 04:06:25;;;;;;;41.4;14.7;;;;;;;;;;;;;-74
2022/11/15 04:06:51;;;;;;;;;;;;;;;7.28;92.54395;100688.2;;;;-74
2022/11/15 04:11:52;;;;;;;;;;;;;;;7.32;91.18359;100691.7;;;;-74
2022/11/15 04:16:51;;;;;;;;;;;;;;;7.39;91.99805;100686.7;;;;-75
2022/11/15 04:26:51;;;;;;;;;;;;;;;7.52;92.2959;100684;;;;-75
2022/11/15 04:31:51;;;;;;;;;;;;;;;7.54;91.4375;100678;;;;-75
2022/11/15 04:41:51;;;;;;;;;;;;;;;7.61;91.00293;100671.5;;;;-75
2022/11/15 04:46:51;;;;;;;;;;;;;;;7.65;90.83398;100676.7;;;;-76
2022/11/15 04:51:52;;;;;;;;;;;;;;;7.7;90.93262;100683.4;;;;-76
2022/11/15 04:56:54;;;;;;;;;;;;;;;7.76;91.47168;100676.6;;;;-76
2022/11/15 05:01:53;;;;;;;;;;;;;;;7.84;92.10254;100679.1;;;;-74
2022/11/15 05:06:26;;;;;;;36.9;14.3;;;;;;;;;;;;;-76
2022/11/15 05:06:54;;;;;;;;;;;;;;;7.9;92.9248;100669.9;;;;-76
2022/11/15 05:11:51;;;;;;;;;;;;;;;7.94;92.34277;100666.3;;;;-75
2022/11/15 05:16:52;;;;;;;;;;;;;;;7.96;92.0293;100663.6;;;;-76
2022/11/15 05:21:51;;;;;;;;;;;;;;;8;91.74121;100672.6;;;;-76
2022/11/15 05:26:51;;;;;;;;;;;;;;;8.04;92.12305;100681;;;;-76
2022/11/15 05:31:51;;;;;;;;;;;;;;;8.09;92.41797;100683.2;;;;-76
2022/11/15 05:36:31;;;;;;;29.7;13.2;;;;;;;;;;;;;-76
2022/11/15 05:36:51;;;;;;;;;;;;;;;8.1;92.2793;100681.2;;;;-76
2022/11/15 05:41:52;;;;;;;;;;;;;;;8.18;93.21582;100689.7;;;;-76
2022/11/15 05:46:53;;;;;;;;;;;;;;;8.2;93.28516;100685.5;;;;-76
2022/11/15 05:51:52;;;;;;;;;;;;;;;8.23;93.08496;100680.3;;;;-76
2022/11/15 05:56:52;;;;;;;;;;;;;;;8.27;93.22363;100689;;;;-75
2022/11/15 06:01:51;;;;;;;;;;;;;;;8.32;93.32324;100691;;;;-76
2022/11/15 06:06:26;;;;;;;28.3;12.4;;;;;;;;;;;;;-76
2022/11/15 06:06:51;;;;;;;;;;;;;;;8.36;93.56348;100704.1;;;;-76
2022/11/15 06:11:51;;;;;;;;;;;;;;;8.41;93.69336;100705.3;;;;-76
2022/11/15 06:16:54;;;;;;;;;;;;;;;8.48;94.2334;100711.1;;;;-76
2022/11/15 06:21:51;;;;;;;;;;;;;;;8.47;93.38574;100716.6;;;;-76
2022/11/15 06:26:51;;;;;;;;;;;;;;;8.5;93.70215;100714.6;;;;-75
2022/11/15 06:31:52;;;;;;;;;;;;;;;8.52;93.60742;100717.3;;;;-76
2022/11/15 06:36:27;;;;;;;23.3;11.6;;;;;;;;;;;;;-76
2022/11/15 06:36:51;;;;;;;;;;;;;;;8.5;93.25293;100711.5;;;;-75
2022/11/15 06:41:51;;;;;;;;;;;;;;;8.51;93.69336;100714.6;;;;-77
2022/11/15 06:46:51;;;;;;;;;;;;;;;8.52;93.36621;100730.9;;;;-76
2022/11/15 06:51:51;;;;;;;;;;;;;;;8.53;93.57617;100739.4;;;;-75
2022/11/15 06:56:52;;;;;;;;;;;;;;;8.51;93.4082;100740.5;;;;-76
2022/11/15 07:01:53;;;;;;;;;;;;;;;8.52;93.84668;100741;;;;-76
2022/11/15 07:06:27;;;;;;;22.4;11;;;;;;;;;;;;;-75
2022/11/15 07:06:53;;;;;;;;;;;;;;;8.48;93.89551;100741.4;;;;-74
2022/11/15 07:11:51;;;;;;;;;;;;;;;8.48;93.99414;100738;;;;-75
2022/11/15 07:16:51;;;;;;;;;;;;;;;8.47;93.96875;100742.6;;;;-76
2022/11/15 07:21:51;;;;;;;;;;;;;;;8.48;94.42188;100752.7;;;;-75
2022/11/15 07:26:51;;;;;;;;;;;;;;;8.49;94.63086;100752.1;;;;-75
2022/11/15 07:31:51;;;;;;;;;;;;;;;8.5;94.6543;100746.8;;;;-74
2022/11/15 07:36:27;;;;;;;22.2;10.6;;;;;;;;;;;;;-76
2022/11/15 07:36:51;;;;;;;;;;;;;;;8.48;94.97949;100735.3;;;;-76
2022/11/15 07:42:52;;;;;;;;;;;;;;;8.46;94.41602;100734;;;;-74
2022/11/15 07:46:51;;;;;;;;;;;;;;;8.46;94.96387;100742.3;;;;-76
2022/11/15 07:51:51;;;;;;;;;;;;;;;8.47;95.43555;100734.4;;;;-75
2022/11/15 07:56:51;;;;;;;;;;;;;;;8.45;95.10449;100734.4;;;;-76
2022/11/15 08:01:51;;;;;;;;;;;;;;;8.45;95.60938;100734.1;;;;-75
2022/11/15 08:06:27;;;;;;;16.8;9.2;;;;;;;;;;;;;-75
2022/11/15 08:06:51;;;;;;;;;;;;;;;8.44;95.78223;100734.7;;;;-75
2022/11/15 08:11:51;;;;;;;;;;;;;;;8.42;95.22852;100734.4;;;;-76
2022/11/15 08:16:52;;;;;;;;;;;;;;;8.4;95.20215;100731.8;;;;-75
2022/11/15 08:21:52;;;;;;;;;;;;;;;8.38;95.21191;100728.8;;;;-77
2022/11/15 08:26:51;;;;;;;;;;;;;;;8.41;95.25098;100729.9;;;;-75
2022/11/15 08:31:53;;;;;;;;;;;;;;;8.47;95.79785;100715.1;;;;-76
2022/11/15 08:36:28;;;;;;;19.3;8.2;;;;;;;;;;;;;-75
2022/11/15 08:36:51;;;;;;;;;;;;;;;8.54;95.60742;100715.1;;;;-74
2022/11/15 08:41:51;;;;;;;;;;;;;;;8.62;95.67773;100704.3;;;;-75
2022/11/15 08:46:52;;;;;;;;;;;;;;;8.68;95.36328;100696.3;;;;-75
2022/11/15 08:51:51;;;;;;;;;;;;;;;8.75;95.73828;100690.8;;;;-75
2022/11/15 08:56:51;;;;;;;;;;;;;;;8.81;95.66699;100686.1;;;;-75
2022/11/15 09:01:51;;;;;;;;;;;;;;;8.88;95.78125;100683.3;;;;-75
2022/11/15 09:06:30;;;;;;;14;7.1;;;;;;;;;;;;;-76
2022/11/15 09:06:51;;;;;;;;;;;;;;;8.94;94.82617;100682.1;;;;-75
2022/11/15 09:11:51;;;;;;;;;;;;;;;9.03;95.28711;100678.9;;;;-76
2022/11/15 09:16:51;;;;;;;;;;;;;;;9.15;95.15723;100678.5;;;;-76
2022/11/15 09:21:51;;;;;;;;;;;;;;;9.26;95.69922;100681.5;;;;-75
2022/11/15 09:26:53;;;;;;;;;;;;;;;9.42;95.9209;100685;;;;-74
2022/11/15 09:31:51;;;;;;;;;;;;;;;9.52;95.79785;100678;;;;-74
2022/11/15 09:36:29;;;;;;;14.4;6.8;;;;;;;;;;;;;-75
2022/11/15 09:36:51;;;;;;;;;;;;;;;9.62;94.98535;100667.8;;;;-74
2022/11/15 09:42:01;;;;;;;;;;;;;;;9.71;95.2793;100677;;;;-75
2022/11/15 09:46:55;;;;;;;;;;;;;;;9.79;94.62695;100668.5;;;;-76
2022/11/15 09:51:53;;;;;;;;;;;;;;;10.04;95.3418;100678.7;;;;-76
2022/11/15 09:56:51;;;;;;;;;;;;;;;10.08;94.16113;100677.3;;;;-76
2022/11/15 10:01:55;;;;;;;;;;;;;;;10.22;93.34277;100672.9;;;;-75
2022/11/15 10:06:30;;;;;;;11.9;4.6;;;;;;;;;;;;;-75
2022/11/15 10:06:57;;;;;;;;;;;;;;;10.31;92.72559;100670.9;;;;-76
2022/11/15 10:11:51;;;;;;;;;;;;;;;10.39;92.32227;100658.6;;;;-77
2022/11/15 10:17:01;;;;;;;;;;;;;;;10.45;91.31055;100659.2;;;;-75
2022/11/15 10:22:00;;;;;;;;;;;;;;;10.54;91.33984;100657.8;;;;-75
2022/11/15 10:26:53;;;;;;;;;;;;;;;10.58;90.47656;100656.3;;;;-76
2022/11/15 10:31:51;;;;;;;;;;;;;;;10.58;89.84766;100644.1;;;;-74
2022/11/15 10:36:31;;;;;;;10.3;4.5;;;;;;;;;;;;;-76
2022/11/15 10:36:58;;;;;;;;;;;;;;;10.63;89.39551;100630.9;;;;-78
2022/11/15 10:41:51;;;;;;;;;;;;;;;10.64;89.27539;100624.2;;;;-75
2022/11/15 10:47:04;;;;;;;;;;;;;;;10.73;88.78711;100606.9;;;;-74
2022/11/15 10:51:56;;;;;;;;;;;;;;;10.79;88.30078;100601.5;;;;-75
2022/11/15 10:56:52;;;;;;;;;;;;;;;10.84;88.26563;100601.7;;;;-75
2022/11/15 11:01:54;;;;;;;;;;;;;;;10.89;87.61426;100585.9;;;;-75
2022/11/15 11:06:34;;;;;;;8.3;3.8;;;;;;;;;;;;;-75
2022/11/15 11:06:58;;;;;;;;;;;;;;;10.92;87.40918;100586.5;;;;-75
2022/11/15 11:11:52;;;;;;;;;;;;;;;10.95;87.75879;100578.5;;;;-75
2022/11/15 11:16:53;;;;;;;;;;;;;;;10.99;86.47168;100580.8;;;;-75
2022/11/15 11:21:55;;;;;;;;;;;;;;;11.06;86.07715;100582.1;;;;-73
2022/11/15 11:27:03;;;;;;;;;;;;;;;11.12;86.3457;100576.1;;;;-75
2022/11/15 11:31:57;;;;;;;;;;;;;;;11.19;85.45996;100574.7;;;;-75
2022/11/15 11:36:38;;;;;;;6.4;2.9;;;;;;;;;;;;;-75
2022/11/15 11:36:54;;;;;;;;;;;;;;;11.25;85.85059;100578.6;;;;-74
2022/11/15 11:41:57;;;;;;;;;;;;;;;11.32;84.47949;100565.8;;;;-74
2022/11/15 11:47:00;;;;;;;;;;;;;;;11.33;84.60352;100572.5;;;;-75
2022/11/15 11:51:55;;;;;;;;;;;;;;;11.34;84.58398;100553.8;;;;-74
2022/11/15 11:56:52;;;;;;;;;;;;;;;11.35;84.35352;100537.5;;;;-75
2022/11/15 12:01:52;;;;;;;;;;;;;;;11.38;84.34766;100525.7;;;;-75
2022/11/15 12:06:37;;;;;;;5.7;2.4;;;;;;;;;;;;;-75
2022/11/15 12:06:57;;;;;;;;;;;;;;;11.43;84.18164;100517.3;;;;-75
2022/11/15 12:11:54;;;;;;;;;;;;;;;11.45;84.05176;100503.2;;;;-75
2022/11/15 12:16:51;;;;;;;;;;;;;;;11.49;83.81543;100503.6;;;;-75
2022/11/15 12:21:54;;;;;;;;;;;;;;;11.49;83.48242;100492.2;;;;-75
2022/11/15 12:26:55;;;;;;;;;;;;;;;11.5;83.91699;100481;;;;-74
2022/11/15 12:31:52;;;;;;;;;;;;;;;11.52;83.61133;100483.7;;;;-75
2022/11/15 12:36:40;;;;;;;6.2;1.9;;;;;;;;;;;;;-76
2022/11/15 12:36:52;;;;;;;;;;;;;;;11.52;83.60938;100468.2;;;;-75
2022/11/15 12:42:01;;;;;;;;;;;;;;;11.52;83.2002;100457.4;;;;-75
2022/11/15 12:47:08;;;;;;;;;;;;;;;11.54;83.02637;100450;;;;-74
2022/11/15 12:52:08;;;;;;;;;;;;;;;11.58;83.00195;100441.8;;;;-76
2022/11/15 12:57:01;;;;;;;;;;;;;;;11.54;82.60645;100442.6;;;;-75
2022/11/15 13:02:03;;;;;;;;;;;;;;;11.53;82.625;100424.6;;;;-75
2022/11/15 13:06:43;;;;;;;5.6;1.8;;;;;;;;;;;;;-75
2022/11/15 13:06:54;;;;;;;;;;;;;;;11.48;82.79395;100414.1;;;;-75
2022/11/15 13:11:58;;;;;;;;;;;;;;;11.47;83.02539;100416.1;;;;-75
2022/11/15 13:16:51;;;;;;;;;;;;;;;11.52;82.81348;100413;;;;-75
2022/11/15 13:26:51;;;;;;;;;;;;;;;11.53;82.58105;100390.9;;;;-77
2022/11/15 13:31:51;;;;;;;;;;;;;;;11.48;82.81641;100382.2;;;;-75
2022/11/15 13:36:38;;;;;;;5.2;1.4;;;;;;;;;;;;;-75
2022/11/15 13:36:51;;;;;;;;;;;;;;;11.45;82.60059;100376.3;;;;-76
2022/11/15 13:41:54;;;;;;;;;;;;;;;11.44;82.53223;100363.2;;;;-76
2022/11/15 13:46:51;;;;;;;;;;;;;;;11.38;82.16602;100361.2;;;;-75
2022/11/15 13:51:54;;;;;;;;;;;;;;;11.35;82.12793;100352.9;;;;-75
2022/11/15 13:56:55;;;;;;;;;;;;;;;11.32;82.02148;100343;;;;-75
2022/11/15 14:01:53;;;;;;;;;;;;;;;11.23;81.81543;100339.9;;;;-75
2022/11/15 14:06:48;;;;;;;8.7;1;;;;;;;;;;;;;-76
2022/11/15 14:07:00;;;;;;;;;;;;;;;11.23;82.04883;100329.1;;;;-76
2022/11/15 14:11:58;;;;;;;;;;;;;;;11.2;81.93457;100331.2;;;;-76
2022/11/15 14:16:53;;;;;;;;;;;;;;;11.11;82.03711;100327.3;;;;-75
2022/11/15 14:22:02;;;;;;;;;;;;;;;11.1;81.9375;100318.9;;;;-75
2022/11/15 14:26:51;;;;;;;;;;;;;;;10.98;81.98047;100309;;;;-75
2022/11/15 14:31:54;;;;;;;;;;;;;;;10.91;81.53711;100299.5;;;;-76
2022/11/15 14:36:39;;;;;;;2.4;0.8;;;;;;;;;;;;;-75
2022/11/15 14:36:51;;;;;;;;;;;;;;;10.91;82.37598;100296.8;;;;-75
2022/11/15 14:41:54;;;;;;;;;;;;;;;10.86;82.07813;100286.6;;;;-74
2022/11/15 14:46:51;;;;;;;;;;;;;;;10.81;82.54688;100278.1;;;;-75
2022/11/15 14:51:51;;;;;;;;;;;;;;;10.76;82.49219;100268.4;;;;-74
2022/11/15 14:56:51;;;;;;;;;;;;;;;10.72;83.31543;100261.5;;;;-74
2022/11/15 15:01:51;;;;;;;;;;;;;;;10.68;82.83105;100256.1;;;;-75
2022/11/15 15:06:40;;;;;;;3.4;1;;;;;;;;;;;;;-75
2022/11/15 15:06:51;;;;;;;;;;;;;;;10.7;83.06836;100250.5;;;;-76
2022/11/15 15:11:52;;;;;;;;;;;;;;;10.66;83.4668;100233.4;;;;-76
2022/11/15 15:16:51;;;;;;;;;;;;;;;10.6;83.34668;100222.4;;;;-75
2022/11/15 15:21:51;;;;;;;;;;;;;;;10.61;83.30371;100217.1;;;;-74
2022/11/15 15:26:54;;;;;;;;;;;;;;;10.57;83.15332;100203.5;;;;-74
2022/11/15 15:31:51;;;;;;;;;;;;;;;10.52;83.00098;100202.1;;;;-75
2022/11/15 15:36:42;;;;;;;4.8;1.6;;;;;;;;;;;;;-74
2022/11/15 15:36:54;;;;;;;;;;;;;;;10.47;83.16602;100192.4;;;;-74
2022/11/15 15:41:51;;;;;;;;;;;;;;;10.47;83.13281;100192.7;;;;-75
2022/11/15 15:46:52;;;;;;;;;;;;;;;10.4;82.79004;100184;;;;-74
2022/11/15 15:51:51;;;;;;;;;;;;;;;10.4;82.71094;100175.1;;;;-75
2022/11/15 15:56:51;;;;;;;;;;;;;;;10.37;82.7959;100176.5;;;;-75
2022/11/15 16:01:51;;;;;;;;;;;;;;;10.36;82.89258;100169.9;;;;-74
2022/11/15 16:06:44;;;;;;;6.3;1.6;;;;;;;;;;;;;-74
2022/11/15 16:06:56;;;;;;;;;;;;;;;10.32;82.69629;100176.6;;;;-74
2022/11/15 16:11:51;;;;;;;;;;;;;;;10.31;82.70703;100175.1;;;;-75
2022/11/15 16:16:53;;;;;;;;;;;;;;;10.3;83.00391;100168.8;;;;-75
2022/11/15 16:21:51;;;;;;;;;;;;;;;10.28;82.60059;100171.6;;;;-74
2022/11/15 16:26:52;;;;;;;;;;;;;;;10.29;82.64453;100168.9;;;;-74
2022/11/15 16:31:51;;;;;;;;;;;;;;;10.27;82.82129;100166.8;;;;-75
2022/11/15 16:36:43;;;;;;;4.7;1.5;;;;;;;;;;;;;-75
2022/11/15 16:36:53;;;;;;;;;;;;;;;10.24;82.82617;100160.4;;;;-75
2022/11/15 16:41:51;;;;;;;;;;;;;;;10.23;82.92383;100157.9;;;;-77
2022/11/15 16:46:54;;;;;;;;;;;;;;;10.23;82.78027;100151;;;;-76
2022/11/15 16:51:52;;;;;;;;;;;;;;;10.22;82.72266;100156.2;;;;-75
2022/11/15 16:56:52;;;;;;;;;;;;;;;10.23;82.82422;100158;;;;-76
2022/11/15 17:01:53;;;;;;;;;;;;;;;10.21;83.06152;100148.2;;;;-75
2022/11/15 17:06:44;;;;;;;3.1;1.4;;;;;;;;;;;;;-75
2022/11/15 17:06:55;;;;;;;;;;;;;;;10.19;83.3584;100150.5;;;;-77
2022/11/15 17:11:51;;;;;;;;;;;;;;;10.17;83.84082;100146.9;;;;-76
2022/11/15 17:16:51;;;;;;;;;;;;;;;10.13;84.2959;100148.7;;;;-76
2022/11/15 17:21:53;;;;;;;;;;;;;;;10.09;84.76172;100139.5;;;;-75
2022/11/15 17:26:51;;;;;;;;;;;;;;;10.04;85.19238;100137.2;;;;-75
2022/11/15 17:31:55;;;;;;;;;;;;;;;9.99;85.61621;100138.9;;;;-77
2022/11/15 17:36:44;;;;;;;3.9;1.5;;;;;;;;;;;;;-75
2022/11/15 17:36:53;;;;;;;;;;;;;;;9.94;86.04492;100141.6;;;;-76
2022/11/15 17:41:51;;;;;;;;;;;;;;;9.9;86.45801;100136.8;;;;-75
2022/11/15 17:46:52;;;;;;;;;;;;;;;9.87;86.71582;100132.1;;;;-78
2022/11/15 17:51:51;;;;;;;;;;;;;;;9.83;87.2041;100125.1;;;;-76
2022/11/15 17:56:53;;;;;;;;;;;;;;;9.8;87.24121;100124.8;;;;-74
2022/11/15 18:01:52;;;;;;;;;;;;;;;9.77;87.77539;100122.5;;;;-76
2022/11/15 18:06:45;;;;;;;4.7;1.6;;;;;;;;;;;;;-75
2022/11/15 18:06:55;;;;;;;;;;;;;;;9.73;88.27539;100116.5;;;;-75
2022/11/15 18:11:54;;;;;;;;;;;;;;;9.72;88.66797;100111.3;;;;-76
2022/11/15 18:16:53;;;;;;;;;;;;;;;9.7;89.1709;100112.9;;;;-74
2022/11/15 18:22:03;;;;;;;;;;;;;;;9.67;89.35254;100116.8;;;;-75
2022/11/15 18:26:51;;;;;;;;;;;;;;;9.64;89.47949;100109.7;;;;-76
2022/11/15 18:31:54;;;;;;;;;;;;;;;9.65;89.44824;100102.1;;;;-76
2022/11/15 18:36:47;;;;;;;4;1.6;;;;;;;;;;;;;-75
2022/11/15 18:36:58;;;;;;;;;;;;;;;9.62;89.9248;100100;;;;-75
2022/11/15 18:41:51;;;;;;;;;;;;;;;9.63;90.69727;100099;;;;-74
2022/11/15 18:46:53;;;;;;;;;;;;;;;9.63;91.0625;100096.4;;;;-76
2022/11/15 18:51:51;;;;;;;;;;;;;;;9.64;91.44824;100092.1;;;;-75
2022/11/15 18:56:52;;;;;;;;;;;;;;;9.66;91.87109;100088.3;;;;-76
2022/11/15 19:01:51;;;;;;;;;;;;;;;9.66;92.0918;100087.7;;;;-74
2022/11/15 19:06:48;;;;;;;4.2;2.1;;;;;;;;;;;;;-76
2022/11/15 19:06:59;;;;;;;;;;;;;;;9.66;92.21289;100077.7;;;;-76
2022/11/15 19:11:51;;;;;;;;;;;;;;;9.67;92.48047;100082;;;;-76
2022/11/15 19:16:53;;;;;;;;;;;;;;;9.69;92.98828;100078.9;;;;-76
2022/11/15 19:21:51;;;;;;;;;;;;;;;9.69;93.10938;100075.5;;;;-76
2022/11/15 19:26:54;;;;;;;;;;;;;;;9.7;93.22363;100073.1;;;;-76
2022/11/15 19:31:53;;;;;;;;;;;;;;;9.7;93.4209;100077.6;;;;-76
2022/11/15 19:36:48;;;;;;;5.4;2.4;;;;;;;;;;;;;-76
2022/11/15 19:36:57;;;;;;;;;;;;;;;9.71;93.66309;100076.4;;;;-75
2022/11/15 19:41:51;;;;;;;;;;;;;;;9.71;93.63086;100070.7;;;;-75
2022/11/15 19:46:51;;;;;;;;;;;;;;;9.73;94.21875;100062.6;;;;-76
2022/11/15 19:51:51;;;;;;;;;;;;;;;9.75;94.3877;100065.9;;;;-76
2022/11/15 19:56:51;;;;;;;;;;;;;;;9.76;94.58789;100061.7;;;;-76
2022/11/15 20:01:51;;;;;;;;;;;;;;;9.78;94.66016;100053.3;;;;-75
2022/11/15 20:06:49;;;;;;;6;3;;;;;;;;;;;;;-76
2022/11/15 20:06:58;;;;;;;;;;;;;;;9.78;94.82227;100047.4;;;;-75
2022/11/15 20:11:54;;;;;;;;;;;;;;;9.8;94.98242;100052;;;;-75
2022/11/15 20:16:51;;;;;;;;;;;;;;;9.82;95.08496;100039.7;;;;-76
2022/11/15 20:21:51;;;;;;;;;;;;;;;9.84;95.29688;100041.6;;;;-75
2022/11/15 20:26:54;;;;;;;;;;;;;;;9.87;95.6123;100039.2;;;;-76
2022/11/15 20:31:51;;;;;;;;;;;;;;;9.88;95.49512;100036.9;;;;-76
2022/11/15 20:36:51;;;;;;;7.8;3.6;;;;;;;;;;;;;-74
2022/11/15 20:37:01;;;;;;;;;;;;;;;9.91;95.9502;100028.8;;;;-75
2022/11/15 20:41:51;;;;;;;;;;;;;;;9.91;95.63086;100030.9;;;;-75
2022/11/15 20:46:54;;;;;;;;;;;;;;;9.92;95.77637;100029.5;;;;-75
2022/11/15 20:51:51;;;;;;;;;;;;;;;9.94;96.21094;100030.5;;;;-75
2022/11/15 20:56:54;;;;;;;;;;;;;;;9.96;96.33594;100031.9;;;;-75
2022/11/15 21:01:54;;;;;;;;;;;;;;;9.98;95.98828;100021.7;;;;-76
2022/11/15 21:06:51;;;;;;;7.1;4.1;;;;;;;;;;;;;-76
2022/11/15 21:07:00;;;;;;;;;;;;;;;9.99;96.38574;100013;;;;-75
2022/11/15 21:16:51;;;;;;;;;;;;;;;10.01;96.42285;100011.5;;;;-77
2022/11/15 21:21:51;;;;;;;;;;;;;;;10.02;96.35938;100008.2;;;;-76
2022/11/15 21:26:51;;;;;;;;;;;;;;;10.03;96.5498;100001;;;;-75
2022/11/15 21:31:52;;;;;;;;;;;;;;;10.03;96.36328;100000.2;;;;-75
2022/11/15 21:36:51;;;;;;;;;;;;;;;10.04;96.72754;100000.1;;;;-75
2022/11/15 21:37:00;;;;;;;8.6;4.7;;;;;;;;;;;;;-75
2022/11/15 21:41:51;;;;;;;;;;;;;;;10.05;96.56543;99990.99;;;;-75
2022/11/15 21:46:51;;;;;;;;;;;;;;;10.06;96.76465;99981.92;;;;-74
2022/11/15 21:51:51;;;;;;;;;;;;;;;10.08;96.46094;99985.76;;;;-75
2022/11/15 21:56:51;;;;;;;;;;;;;;;10.1;96.79492;99978.22;;;;-75
2022/11/15 22:06:51;;;;;;;;;;;;;;;10.12;96.74414;99964.34;;;;-76
2022/11/15 22:07:01;;;;;;;8.6;4.7;;;;;;;;;;;;;-76
2022/11/15 22:11:51;;;;;;;;;;;;;;;10.12;96.73242;99963.95;;;;-75
2022/11/15 22:16:51;;;;;;;;;;;;;;;10.13;96.80273;99958.03;;;;-75
2022/11/15 22:21:51;;;;;;;;;;;;;;;10.15;96.72754;99958.38;;;;-75
2022/11/15 22:26:51;;;;;;;;;;;;;;;10.17;96.61523;99953.9;;;;-76
2022/11/15 22:31:51;;;;;;;;;;;;;;;10.17;96.71387;99947.13;;;;-75
2022/11/15 22:36:51;;;;;;;;;;;;;;;10.19;96.57324;99941.64;;;;-75
2022/11/15 22:37:10;;;;;;;8.8;5;;;;;;;;;;;;;-75
2022/11/15 22:41:52;;;;;;;;;;;;;;;10.19;96.98242;99939.69;;;;-75
2022/11/15 22:46:51;;;;;;;;;;;;;;;10.22;96.68945;99937.81;;;;-75
2022/11/15 22:51:51;;;;;;;;;;;;;;;10.22;96.625;99919.8;;;;-75
2022/11/15 22:56:52;;;;;;;;;;;;;;;10.22;96.41602;99905.78;;;;-76
2022/11/15 23:01:52;;;;;;;;;;;;;;;10.23;96.35254;99914.84;;;;-75
2022/11/15 23:06:54;;;;;;;;;;;;;;;10.25;96.60938;99916.7;;;;-75
2022/11/15 23:07:03;;;;;;;7.2;4.9;;;;;;;;;;;;;-75
2022/11/15 23:16:51;;;;;;;;;;;;;;;10.27;96.73242;99907.91;;;;-74
2022/11/15 23:26:52;;;;;;;;;;;;;;;10.29;96.72656;99896.92;;;;-75
2022/11/15 23:36:54;;;;;;;;;;;;;;;10.3;96.89648;99894.23;;;;-76
2022/11/15 23:37:03;;;;;;;9.9;5.8;;;;;;;;;;;;;-76
2022/11/15 23:41:51;;;;;;;;;;;;;;;10.32;96.75488;99885.27;;;;-75
2022/11/15 23:46:51;;;;;;;;;;;;;;;10.33;97.09863;99884.51;;;;-75
2022/11/15 23:51:51;;;;;;;;;;;;;;;10.33;97.05664;99882.26;;;;-77
2022/11/15 23:56:51;;;;;;;;;;;;;;;10.35;96.96094;99877.84;;;;-76
